createdAt,value
2022-12-31T00:01:51.816Z,100870.75
2022-12-31T00:04:18.686Z,100875.81
2022-12-31T00:06:46.289Z,100881.00
2022-12-31T00:09:13.360Z,100875.09
2022-12-31T00:11:40.377Z,100869.56
2022-12-31T00:14:07.753Z,100875.84
2022-12-31T00:16:37.870Z,100875.53
2022-12-31T00:19:06.337Z,100876.91
2022-12-31T00:21:34.098Z,100880.00
2022-12-31T00:24:02.361Z,100876.00
2022-12-31T00:26:31.827Z,100886.41
2022-12-31T00:29:00.627Z,100891.34
2022-12-31T00:31:27.427Z,100902.78
2022-12-31T00:33:54.583Z,100905.69
2022-12-31T00:36:23.888Z,100903.78
2022-12-31T00:38:52.616Z,100901.53
2022-12-31T00:41:21.203Z,100909.38
2022-12-31T00:43:48.605Z,100906.91
2022-12-31T00:46:15.956Z,100912.19
2022-12-31T00:48:43.634Z,100910.78
2022-12-31T00:51:13.425Z,100914.34
2022-12-31T00:53:40.409Z,100911.38
2022-12-31T00:56:13.318Z,100916.44
2022-12-31T00:58:40.572Z,100900.69
2022-12-31T01:01:16.571Z,100911.97
2022-12-31T01:03:44.157Z,100898.91
2022-12-31T01:06:11.217Z,100906.00
2022-12-31T01:08:38.136Z,100912.13
2022-12-31T01:11:22.763Z,100907.75
2022-12-31T01:13:57.374Z,100913.97
2022-12-31T01:16:32.649Z,100911.13
2022-12-31T01:19:07.005Z,100908.56
2022-12-31T01:21:36.018Z,100898.47
2022-12-31T01:24:02.830Z,100901.03
2022-12-31T01:26:30.132Z,100909.97
2022-12-31T01:28:57.046Z,100907.06
2022-12-31T01:31:24.713Z,100901.09
2022-12-31T01:33:52.593Z,100911.53
2022-12-31T01:36:26.279Z,100913.44
2022-12-31T01:38:55.671Z,100913.59
2022-12-31T01:41:33.839Z,100912.81
2022-12-31T01:44:02.712Z,100918.91
2022-12-31T01:46:29.631Z,100917.31
2022-12-31T01:49:00.317Z,100912.13
2022-12-31T01:51:31.713Z,100907.22
2022-12-31T01:54:00.464Z,100907.50
2022-12-31T01:56:27.450Z,100912.59
2022-12-31T01:58:57.429Z,100907.69
2022-12-31T02:01:31.236Z,100907.09
2022-12-31T02:04:04.012Z,100904.34
2022-12-31T02:06:39.512Z,100910.03
2022-12-31T02:09:07.491Z,100910.84
2022-12-31T02:11:37.914Z,100910.47
2022-12-31T02:14:09.462Z,100901.47
2022-12-31T02:16:50.805Z,100895.13
2022-12-31T02:19:45.239Z,100902.09
2022-12-31T02:22:43.167Z,100905.25
2022-12-31T02:25:20.638Z,100899.00
2022-12-31T02:28:09.011Z,100904.19
2022-12-31T02:30:37.475Z,100903.41
2022-12-31T02:33:25.647Z,100906.75
2022-12-31T02:36:01.245Z,100906.75
2022-12-31T02:38:32.754Z,100903.25
2022-12-31T02:41:00.862Z,100896.22
2022-12-31T02:43:28.086Z,100905.56
2022-12-31T02:46:06.166Z,100914.47
2022-12-31T02:49:02.435Z,100911.72
2022-12-31T02:51:46.787Z,100911.59
2022-12-31T02:54:32.079Z,100905.34
2022-12-31T02:57:20.540Z,100906.94
2022-12-31T03:00:17.799Z,100891.59
2022-12-31T03:02:47.263Z,100910.50
2022-12-31T03:05:15.936Z,100910.66
2022-12-31T03:07:44.109Z,100917.47
2022-12-31T03:10:11.025Z,100915.97
2022-12-31T03:12:46.827Z,100911.31
2022-12-31T03:15:22.627Z,100908.19
2022-12-31T03:18:09.712Z,100909.78
2022-12-31T03:21:00.851Z,100905.47
2022-12-31T03:23:27.647Z,100910.97
2022-12-31T03:25:56.513Z,100917.09
2022-12-31T03:28:26.509Z,100916.38
2022-12-31T03:30:59.609Z,100914.50
2022-12-31T03:33:31.924Z,100918.47
2022-12-31T03:35:58.772Z,100922.59
2022-12-31T03:38:25.660Z,100927.56
2022-12-31T03:40:53.339Z,100932.94
2022-12-31T03:43:20.686Z,100925.03
2022-12-31T03:45:52.489Z,100928.38
2022-12-31T03:48:21.070Z,100920.59
2022-12-31T03:50:48.215Z,100928.84
2022-12-31T03:53:15.539Z,100934.66
2022-12-31T03:55:42.414Z,100932.72
2022-12-31T03:58:09.354Z,100938.91
2022-12-31T04:00:36.483Z,100934.78
2022-12-31T04:03:03.344Z,100936.31
2022-12-31T04:05:30.213Z,100937.75
2022-12-31T04:07:57.038Z,100933.31
2022-12-31T04:10:23.937Z,100940.81
2022-12-31T04:12:51.082Z,100941.84
2022-12-31T04:15:20.611Z,100941.09
2022-12-31T04:17:48.561Z,100941.81
2022-12-31T04:20:16.466Z,100951.81
2022-12-31T04:22:44.379Z,100957.81
2022-12-31T04:25:11.606Z,100958.47
2022-12-31T04:27:43.897Z,100958.22
2022-12-31T04:30:12.376Z,100955.47
2022-12-31T04:32:39.434Z,100955.38
2022-12-31T04:35:07.536Z,100950.84
2022-12-31T04:37:34.761Z,100954.78
2022-12-31T04:40:05.840Z,100959.09
2022-12-31T04:42:34.315Z,100950.44
2022-12-31T04:45:01.184Z,100959.81
2022-12-31T04:47:28.093Z,100956.16
2022-12-31T04:49:54.923Z,100960.78
2022-12-31T04:52:22.477Z,100956.09
2022-12-31T04:54:49.475Z,100954.44
2022-12-31T04:57:16.431Z,100964.44
2022-12-31T04:59:43.459Z,100962.44
2022-12-31T05:02:10.531Z,100966.97
2022-12-31T05:04:37.488Z,100968.50
2022-12-31T05:07:04.333Z,100977.19
2022-12-31T05:09:31.283Z,100981.34
2022-12-31T05:11:58.270Z,100967.66
2022-12-31T05:14:25.802Z,100971.91
2022-12-31T05:16:53.654Z,100980.59
2022-12-31T05:19:20.656Z,100975.34
2022-12-31T05:22:07.471Z,100982.16
2022-12-31T05:24:34.314Z,100985.63
2022-12-31T05:27:01.224Z,100986.56
2022-12-31T05:29:28.038Z,100985.88
2022-12-31T05:31:55.012Z,100992.78
2022-12-31T05:34:21.816Z,100994.59
2022-12-31T05:36:48.623Z,100995.53
2022-12-31T05:39:15.465Z,100998.84
2022-12-31T05:41:42.312Z,100997.19
2022-12-31T05:44:11.072Z,100998.91
2022-12-31T05:46:37.927Z,100998.94
2022-12-31T05:49:05.072Z,101005.03
2022-12-31T05:51:31.933Z,101006.69
2022-12-31T05:53:58.807Z,101003.13
2022-12-31T05:56:25.705Z,101018.69
2022-12-31T05:58:52.522Z,101009.38
2022-12-31T06:01:19.371Z,101015.97
2022-12-31T06:03:46.795Z,101019.69
2022-12-31T06:06:14.022Z,101015.06
2022-12-31T06:08:40.908Z,101026.28
2022-12-31T06:11:08.099Z,101031.38
2022-12-31T06:13:34.887Z,101034.09
2022-12-31T06:16:09.739Z,101040.03
2022-12-31T06:18:37.509Z,101037.41
2022-12-31T06:21:04.658Z,101052.88
2022-12-31T06:23:31.586Z,101057.00
2022-12-31T06:26:05.479Z,101051.75
2022-12-31T06:28:32.745Z,101055.53
2022-12-31T06:31:00.898Z,101057.91
2022-12-31T06:33:27.977Z,101058.50
2022-12-31T06:36:05.871Z,101059.25
2022-12-31T06:38:34.391Z,101066.66
2022-12-31T06:41:05.343Z,101065.56
2022-12-31T06:43:32.413Z,101076.09
2022-12-31T06:46:07.746Z,101069.69
2022-12-31T06:48:34.938Z,101070.56
2022-12-31T06:51:10.613Z,101079.75
2022-12-31T06:53:40.466Z,101080.63
2022-12-31T06:56:08.620Z,101084.06
2022-12-31T06:58:36.027Z,101084.22
2022-12-31T07:01:25.758Z,101097.84
2022-12-31T07:04:38.480Z,101101.31
2022-12-31T07:07:26.441Z,101092.25
2022-12-31T07:10:00.207Z,101095.06
2022-12-31T07:12:51.754Z,101098.16
2022-12-31T07:15:48.058Z,101093.84
2022-12-31T07:18:42.055Z,101101.47
2022-12-31T07:21:16.073Z,101091.28
2022-12-31T07:23:43.467Z,101086.06
2022-12-31T07:26:30.421Z,101099.84
2022-12-31T07:29:18.569Z,101097.31
2022-12-31T07:32:02.367Z,101094.59
2022-12-31T07:34:55.351Z,101104.25
2022-12-31T07:37:27.983Z,101108.16
2022-12-31T07:39:57.393Z,101111.22
2022-12-31T07:42:52.456Z,101113.53
2022-12-31T07:45:19.249Z,101115.16
2022-12-31T07:47:46.401Z,101116.16
2022-12-31T07:50:18.420Z,101119.16
2022-12-31T07:52:46.610Z,101123.94
2022-12-31T07:55:13.441Z,101125.75
2022-12-31T07:58:15.476Z,101130.78
2022-12-31T08:00:42.577Z,101126.13
2022-12-31T08:03:15.495Z,101131.69
2022-12-31T08:06:11.077Z,101134.09
2022-12-31T08:08:51.493Z,101128.81
2022-12-31T08:11:47.335Z,101135.56
2022-12-31T08:14:15.459Z,101124.34
2022-12-31T08:16:42.758Z,101119.09
2022-12-31T08:19:25.700Z,101132.38
2022-12-31T08:22:06.720Z,101128.09
2022-12-31T08:24:58.802Z,101122.09
2022-12-31T08:28:02.959Z,101125.09
2022-12-31T08:30:52.343Z,101123.38
2022-12-31T08:33:37.072Z,101121.47
2022-12-31T08:36:39.078Z,101123.19
2022-12-31T08:39:24.138Z,101123.09
2022-12-31T08:41:55.138Z,101125.06
2022-12-31T08:44:44.218Z,101115.50
2022-12-31T08:47:16.971Z,101117.91
2022-12-31T08:49:44.059Z,101106.22
2022-12-31T08:52:16.341Z,101103.38
2022-12-31T08:54:43.531Z,101106.56
2022-12-31T08:57:28.770Z,101099.88
2022-12-31T09:00:11.975Z,101103.88
2022-12-31T09:03:08.069Z,101103.25
2022-12-31T09:05:58.875Z,101102.28
2022-12-31T09:08:53.009Z,101104.16
2022-12-31T09:11:32.839Z,101098.56
2022-12-31T09:14:17.634Z,101094.97
2022-12-31T09:16:52.514Z,101095.66
2022-12-31T09:19:19.635Z,101088.53
2022-12-31T09:21:46.804Z,101098.78
2022-12-31T09:24:15.569Z,101093.66
2022-12-31T09:26:58.141Z,101087.78
2022-12-31T09:29:30.821Z,101083.13
2022-12-31T09:32:36.324Z,101082.56
2022-12-31T09:35:15.716Z,101086.16
2022-12-31T09:37:51.006Z,101082.56
2022-12-31T09:40:42.845Z,101076.25
2022-12-31T09:43:42.696Z,101074.81
2022-12-31T09:46:27.338Z,101074.22
2022-12-31T09:49:21.898Z,101079.06
2022-12-31T09:52:00.242Z,101074.50
2022-12-31T09:54:30.154Z,101064.75
2022-12-31T09:57:04.684Z,101066.25
2022-12-31T09:59:44.140Z,101064.16
2022-12-31T10:02:33.057Z,101070.75
2022-12-31T10:05:25.636Z,101059.22
2022-12-31T10:08:12.839Z,101056.19
2022-12-31T10:10:53.752Z,101057.13
2022-12-31T10:13:41.025Z,101053.75
2022-12-31T10:16:18.819Z,101054.16
2022-12-31T10:19:13.360Z,101052.56
2022-12-31T10:22:14.451Z,101041.28
2022-12-31T10:24:44.186Z,101048.31
2022-12-31T10:27:32.458Z,101049.97
2022-12-31T10:30:17.679Z,101037.06
2022-12-31T10:32:44.669Z,101030.09
2022-12-31T10:35:21.119Z,101023.72
2022-12-31T10:38:04.538Z,101029.66
2022-12-31T10:40:58.258Z,101028.19
2022-12-31T10:43:50.489Z,101025.97
2022-12-31T10:46:56.773Z,101024.66
2022-12-31T10:49:54.564Z,101034.47
2022-12-31T10:52:27.110Z,101026.09
2022-12-31T10:55:13.209Z,101020.00
2022-12-31T10:57:51.662Z,101018.69
2022-12-31T11:00:21.045Z,101017.38
2022-12-31T11:03:02.077Z,101015.16
2022-12-31T11:06:06.023Z,101013.88
2022-12-31T11:09:19.342Z,101019.19
2022-12-31T11:12:10.799Z,101014.03
2022-12-31T11:15:13.076Z,101004.84
2022-12-31T11:18:13.896Z,100997.50
2022-12-31T11:20:58.108Z,101006.91
2022-12-31T11:24:13.281Z,101002.03
2022-12-31T11:27:01.612Z,100999.44
2022-12-31T11:29:49.244Z,100992.94
2022-12-31T11:32:53.786Z,100995.75
2022-12-31T11:35:31.497Z,100994.13
2022-12-31T11:38:49.274Z,100985.94
2022-12-31T11:41:39.761Z,100993.44
2022-12-31T11:44:24.908Z,100989.72
2022-12-31T11:46:54.709Z,100994.16
2022-12-31T11:49:52.253Z,100990.00
2022-12-31T11:52:43.662Z,100990.13
2022-12-31T11:55:21.353Z,100993.44
2022-12-31T11:57:52.378Z,100986.75
2022-12-31T12:00:20.893Z,100988.94
2022-12-31T12:02:54.988Z,100988.69
2022-12-31T12:05:26.278Z,100980.50
2022-12-31T12:07:54.368Z,100985.28
2022-12-31T12:10:44.714Z,100983.63
2022-12-31T12:13:26.841Z,100983.13
2022-12-31T12:15:59.577Z,100979.03
2022-12-31T12:18:33.746Z,100975.31
2022-12-31T12:21:10.788Z,100980.09
2022-12-31T12:23:38.943Z,100985.94
2022-12-31T12:26:07.399Z,100987.22
2022-12-31T12:28:46.048Z,100983.78
2022-12-31T12:31:22.533Z,100980.47
2022-12-31T12:33:52.173Z,100982.03
2022-12-31T12:36:21.002Z,100979.75
2022-12-31T12:38:48.288Z,100979.19
2022-12-31T12:41:25.456Z,100981.16
2022-12-31T12:44:14.801Z,100978.84
2022-12-31T12:46:48.692Z,100980.47
2022-12-31T12:49:40.491Z,100987.56
2022-12-31T12:52:24.119Z,100987.53
2022-12-31T12:55:06.173Z,100990.22
2022-12-31T12:57:45.519Z,100986.09
2022-12-31T13:00:17.612Z,100991.59
2022-12-31T13:03:18.441Z,100999.19
2022-12-31T13:05:57.276Z,101002.53
2022-12-31T13:08:27.187Z,101005.78
2022-12-31T13:11:06.391Z,101004.34
2022-12-31T13:13:45.378Z,101006.59
2022-12-31T13:16:22.920Z,101012.50
2022-12-31T13:19:05.042Z,101016.75
2022-12-31T13:22:16.520Z,101003.81
2022-12-31T13:25:02.563Z,101006.75
2022-12-31T13:27:43.924Z,101005.44
2022-12-31T13:30:18.428Z,101001.94
2022-12-31T13:32:53.180Z,101011.50
2022-12-31T13:35:27.198Z,101014.84
2022-12-31T13:38:05.627Z,101007.59
2022-12-31T13:41:21.359Z,101012.00
2022-12-31T13:44:04.833Z,101014.28
2022-12-31T13:46:42.831Z,101019.75
2022-12-31T13:49:19.199Z,101018.16
2022-12-31T13:51:52.628Z,101025.63
2022-12-31T13:54:51.459Z,101024.69
2022-12-31T13:57:48.934Z,101032.31
2022-12-31T14:00:21.701Z,101037.97
2022-12-31T14:03:24.055Z,101035.13
2022-12-31T14:06:32.605Z,101033.81
2022-12-31T14:08:59.745Z,101037.84
2022-12-31T14:11:53.301Z,101038.59
2022-12-31T14:14:31.509Z,101032.63
2022-12-31T14:17:04.219Z,101043.81
2022-12-31T14:20:04.889Z,101035.03
2022-12-31T14:22:56.935Z,101042.44
2022-12-31T14:25:27.199Z,101047.00
2022-12-31T14:27:57.075Z,101040.41
2022-12-31T14:30:31.017Z,101049.09
2022-12-31T14:33:33.254Z,101053.97
2022-12-31T14:36:10.363Z,101048.88
2022-12-31T14:38:56.404Z,101042.59
2022-12-31T14:41:35.011Z,101050.06
2022-12-31T14:44:32.943Z,101046.91
2022-12-31T14:47:13.713Z,101053.69
2022-12-31T14:49:49.973Z,101046.06
2022-12-31T14:52:26.678Z,101056.69
2022-12-31T14:55:03.959Z,101051.25
2022-12-31T14:58:01.729Z,101057.75
2022-12-31T15:00:40.197Z,101060.34
2022-12-31T15:03:24.416Z,101069.31
2022-12-31T15:06:06.613Z,101063.50
2022-12-31T15:08:49.373Z,101058.13
2022-12-31T15:11:22.931Z,101059.31
2022-12-31T15:13:56.185Z,101063.22
2022-12-31T15:16:44.845Z,101075.84
2022-12-31T15:19:43.530Z,101067.31
2022-12-31T15:22:48.467Z,101068.09
2022-12-31T15:25:38.418Z,101069.44
2022-12-31T15:28:23.755Z,101081.41
2022-12-31T15:30:51.700Z,101078.25
2022-12-31T15:33:29.684Z,101071.56
2022-12-31T15:35:57.857Z,101074.06
2022-12-31T15:38:32.749Z,101082.09
2022-12-31T15:41:00.570Z,101087.66
2022-12-31T15:43:50.870Z,101092.41
2022-12-31T15:46:25.728Z,101095.50
2022-12-31T15:49:10.349Z,101091.41
2022-12-31T15:51:49.404Z,101063.22
2022-12-31T15:54:47.915Z,101086.50
2022-12-31T15:57:31.498Z,101092.22
2022-12-31T16:00:00.216Z,101111.50
2022-12-31T16:02:29.075Z,101102.13
2022-12-31T16:04:56.341Z,101108.69
2022-12-31T16:07:26.482Z,101100.78
2022-12-31T16:09:57.269Z,101112.66
2022-12-31T16:12:32.713Z,101117.88
2022-12-31T16:15:02.167Z,101118.53
2022-12-31T16:17:36.975Z,101113.94
2022-12-31T16:20:23.395Z,101114.19
2022-12-31T16:22:53.493Z,101116.00
2022-12-31T16:25:36.561Z,101120.44
2022-12-31T16:28:03.981Z,101124.72
2022-12-31T16:30:35.817Z,101120.13
2022-12-31T16:33:05.625Z,101113.13
2022-12-31T16:35:35.072Z,101114.66
2022-12-31T16:38:10.742Z,101121.91
2022-12-31T16:40:38.659Z,101118.25
2022-12-31T16:43:29.697Z,101116.66
2022-12-31T16:45:59.223Z,101116.13
2022-12-31T16:48:26.745Z,101120.47
2022-12-31T16:50:55.946Z,101117.16
2022-12-31T16:53:26.265Z,101116.63
2022-12-31T16:56:01.814Z,101116.72
2022-12-31T16:58:33.585Z,101120.13
2022-12-31T17:01:16.193Z,101114.06
2022-12-31T17:03:46.871Z,101119.41
2022-12-31T17:06:19.053Z,101131.03
2022-12-31T17:08:49.583Z,101129.47
2022-12-31T17:11:24.025Z,101129.56
2022-12-31T17:14:05.893Z,101130.03
2022-12-31T17:16:35.584Z,101129.44
2022-12-31T17:19:03.487Z,101131.94
2022-12-31T17:21:32.543Z,101140.09
2022-12-31T17:24:06.027Z,101136.22
2022-12-31T17:26:38.408Z,101133.59
2022-12-31T17:29:06.100Z,101129.56
2022-12-31T17:31:38.585Z,101135.63
2022-12-31T17:34:14.457Z,101136.41
2022-12-31T17:36:54.637Z,101133.59
2022-12-31T17:39:23.440Z,101141.44
2022-12-31T17:41:52.792Z,101142.69
2022-12-31T17:44:29.416Z,101140.34
2022-12-31T17:46:56.585Z,101140.22
2022-12-31T17:49:29.652Z,101137.19
2022-12-31T17:51:56.561Z,101137.22
2022-12-31T17:54:23.623Z,101138.56
2022-12-31T17:56:51.823Z,101144.00
2022-12-31T17:59:22.735Z,101147.47
2022-12-31T18:01:50.136Z,101146.44
2022-12-31T18:04:19.252Z,101147.00
2022-12-31T18:06:46.124Z,101147.81
2022-12-31T18:09:13.025Z,101149.50
2022-12-31T18:11:40.917Z,101146.03
2022-12-31T18:14:07.926Z,101150.31
2022-12-31T18:16:34.923Z,101153.06
2022-12-31T18:19:02.048Z,101151.47
2022-12-31T18:21:34.631Z,101158.09
2022-12-31T18:26:32.753Z,101156.91
2022-12-31T18:29:10.908Z,101156.03
2022-12-31T18:31:37.843Z,101155.44
2022-12-31T18:34:04.763Z,101160.69
2022-12-31T18:36:31.550Z,101158.22
2022-12-31T18:38:58.367Z,101167.81
2022-12-31T18:41:33.236Z,101171.03
2022-12-31T18:44:00.068Z,101173.69
2022-12-31T18:46:27.836Z,101169.38
2022-12-31T18:48:54.700Z,101177.47
2022-12-31T18:51:31.405Z,101184.84
2022-12-31T18:54:01.149Z,101180.69
2022-12-31T18:56:28.501Z,101193.34
2022-12-31T18:58:55.379Z,101190.75
2022-12-31T19:01:32.932Z,101190.22
2022-12-31T19:04:27.024Z,101198.06
2022-12-31T19:06:55.420Z,101198.00
2022-12-31T19:12:13.651Z,101197.72
2022-12-31T19:14:40.576Z,101191.13
2022-12-31T19:19:34.908Z,101197.78
2022-12-31T19:22:02.875Z,101187.69
2022-12-31T19:24:30.245Z,101195.03
2022-12-31T19:26:57.235Z,101197.66
2022-12-31T19:29:26.426Z,101201.91
2022-12-31T19:31:53.986Z,101196.81
2022-12-31T19:34:21.315Z,101202.66
2022-12-31T19:36:48.120Z,101211.50
2022-12-31T19:39:18.278Z,101207.19
2022-12-31T19:41:46.142Z,101205.03
2022-12-31T19:44:17.897Z,101203.59
2022-12-31T19:46:46.377Z,101215.03
2022-12-31T19:49:14.389Z,101217.59
2022-12-31T19:51:41.933Z,101211.41
2022-12-31T19:54:09.047Z,101210.78
2022-12-31T19:56:36.082Z,101210.84
2022-12-31T19:59:08.360Z,101206.59
2022-12-31T20:01:35.511Z,101212.69
2022-12-31T20:04:02.446Z,101210.00
2022-12-31T20:06:29.353Z,101209.09
2022-12-31T20:08:56.259Z,101213.19
2022-12-31T20:11:24.861Z,101211.19
2022-12-31T20:13:53.701Z,101215.25
2022-12-31T20:16:23.507Z,101219.50
2022-12-31T20:18:50.861Z,101216.81
2022-12-31T20:21:20.982Z,101226.19
2022-12-31T20:23:49.326Z,101216.25
2022-12-31T20:26:16.943Z,101218.22
2022-12-31T20:28:43.894Z,101216.44
2022-12-31T20:31:13.516Z,101209.50
2022-12-31T20:33:41.000Z,101206.16
2022-12-31T20:36:10.794Z,101207.16
2022-12-31T20:38:38.137Z,101206.88
2022-12-31T20:41:07.488Z,101203.50
2022-12-31T20:43:35.198Z,101196.09
2022-12-31T20:46:15.699Z,101206.31
2022-12-31T20:48:44.600Z,101200.09
2022-12-31T20:51:13.024Z,101198.56
2022-12-31T20:53:40.229Z,101199.22
2022-12-31T20:56:08.654Z,101209.66
2022-12-31T20:58:35.959Z,101209.31
2022-12-31T21:01:06.522Z,101206.25
2022-12-31T21:06:22.992Z,101200.63
2022-12-31T21:08:49.819Z,101197.28
2022-12-31T21:11:35.367Z,101191.50
2022-12-31T21:14:02.760Z,101202.66
2022-12-31T21:16:29.933Z,101205.41
2022-12-31T21:18:56.726Z,101210.59
2022-12-31T21:21:24.089Z,101203.63
2022-12-31T21:23:51.013Z,101198.41
2022-12-31T21:26:17.936Z,101205.22
2022-12-31T21:28:45.514Z,101207.94
2022-12-31T21:31:14.322Z,101207.34
2022-12-31T21:33:45.855Z,101210.03
2022-12-31T21:36:13.696Z,101211.28
2022-12-31T21:38:40.825Z,101209.44
2022-12-31T21:41:09.384Z,101209.53
2022-12-31T21:43:36.245Z,101207.84
2022-12-31T21:46:05.169Z,101209.72
2022-12-31T21:48:32.139Z,101206.56
2022-12-31T21:51:12.913Z,101213.78
2022-12-31T21:53:40.355Z,101217.38
2022-12-31T21:56:08.665Z,101216.56
2022-12-31T21:58:37.240Z,101212.19
2022-12-31T22:01:23.196Z,101211.38
2022-12-31T22:03:50.545Z,101217.13
2022-12-31T22:06:22.746Z,101218.44
2022-12-31T22:08:51.979Z,101212.84
2022-12-31T22:11:21.077Z,101220.19
2022-12-31T22:13:48.498Z,101218.84
2022-12-31T22:16:17.193Z,101211.94
2022-12-31T22:18:44.482Z,101211.72
2022-12-31T22:21:29.546Z,101207.63
2022-12-31T22:23:58.780Z,101212.88
2022-12-31T22:26:28.569Z,101213.66
2022-12-31T22:28:59.776Z,101220.72
2022-12-31T22:31:30.139Z,101221.59
2022-12-31T22:33:58.545Z,101213.06
2022-12-31T22:36:26.591Z,101217.72
2022-12-31T22:38:58.326Z,101221.91
2022-12-31T22:41:26.782Z,101224.63
2022-12-31T22:44:02.594Z,101222.91
2022-12-31T22:46:29.907Z,101225.84
2022-12-31T22:48:58.611Z,101230.31
2022-12-31T22:51:55.024Z,101233.16
2022-12-31T22:54:13.942Z,101235.59
2022-12-31T22:56:41.325Z,101231.72
2022-12-31T22:59:08.327Z,101221.53
2022-12-31T23:01:35.252Z,101231.34
2022-12-31T23:04:02.306Z,101233.22
2022-12-31T23:06:29.447Z,101220.53
2022-12-31T23:09:14.799Z,101220.38
2022-12-31T23:11:43.359Z,101222.25
2022-12-31T23:14:34.795Z,101220.28
2022-12-31T23:17:30.016Z,101217.81
2022-12-31T23:20:18.961Z,101219.56
2022-12-31T23:23:06.036Z,101217.72
2022-12-31T23:25:38.399Z,101211.09
2022-12-31T23:28:05.756Z,101209.34
2022-12-31T23:30:33.123Z,101218.22
2022-12-31T23:33:00.110Z,101221.00
2022-12-31T23:35:26.971Z,101213.63
2022-12-31T23:37:53.843Z,101217.22
2022-12-31T23:40:21.777Z,101220.00
2022-12-31T23:42:50.285Z,101219.22
2022-12-31T23:45:17.314Z,101227.31
2022-12-31T23:47:44.110Z,101218.06
2022-12-31T23:50:10.929Z,101220.81
2022-12-31T23:52:37.784Z,101218.50
2022-12-31T23:55:04.994Z,101230.84
2022-12-31T23:57:32.101Z,101233.34
2022-12-31T23:59:59.014Z,101236.09
